Time;durP1;ratioP1;P1;durP2;ratioP2;P2;SDS_P1;SDS_P2;PMS_P1;PMS_P2;Temp;Humidity;BMP_temperature;BMP_pressure;BME280_temperature;BME280_humidity;BME280_pressure;Samples;Min_cycle;Max_cycle;Signal;HPM_P1;HPM_P2
2022/06/03 00:00:19;;;;;;;1.85;1.20;;;;;;;17.25;57.95;100679.91;4501889;31;20504;-62
2022/06/03 00:03:11;;;;;;;5.35;1.50;;;;;;;17.15;59.76;100686.47;4494924;31;20151;-62
2022/06/03 00:06:03;;;;;;;2.15;1.37;;;;;;;17.02;59.29;100679.81;4501350;31;20079;-62
2022/06/03 00:08:39;;;;;;;1.40;1.30;;;;;;;16.95;60.03;100673.84;4501873;31;20413;-61
2022/06/03 00:11:34;;;;;;;1.37;1.30;;;;;;;16.88;61.73;100672.31;4501938;31;20141;-62
2022/06/03 00:14:17;;;;;;;4.07;1.50;;;;;;;16.97;58.39;100680.00;4501907;31;20096;-62
2022/06/03 00:17:03;;;;;;;2.42;1.42;;;;;;;17.09;57.39;100676.91;4502016;31;20075;-62
2022/06/03 00:20:12;;;;;;;3.00;2.03;;;;;;;17.02;58.49;100691.34;4502131;31;20727;-62
2022/06/03 00:23:06;;;;;;;8.90;2.40;;;;;;;16.91;62.28;100706.81;4435721;32;20097;-62
2022/06/03 00:26:38;;;;;;;6.68;2.62;;;;;;;16.98;61.63;100697.69;4435934;32;20320;-62
2022/06/03 00:29:20;;;;;;;10.75;2.15;;;;;;;16.85;63.75;100705.19;4400873;32;20086;-62
2022/06/03 00:32:25;;;;;;;3.33;1.98;;;;;;;16.72;65.41;100715.34;4494512;31;20402;-62
2022/06/03 00:34:58;;;;;;;4.45;2.20;;;;;;;16.81;63.01;100706.22;4501840;31;20498;-62
2022/06/03 00:37:36;;;;;;;3.53;1.92;;;;;;;16.85;62.21;100707.00;4501881;31;20152;-62
2022/06/03 00:40:29;;;;;;;2.20;1.77;;;;;;;16.85;62.06;100709.66;4502094;31;20110;-62
2022/06/03 00:43:27;;;;;;;5.47;2.10;;;;;;;16.68;62.95;100707.53;4499259;31;20117;-62
2022/06/03 00:46:13;;;;;;;4.22;2.17;;;;;;;16.63;62.29;100706.78;4495444;31;20133;-62
2022/06/03 00:48:59;;;;;;;4.27;2.00;;;;;;;16.56;61.69;100710.56;4501815;31;20088;-62
2022/06/03 00:51:51;;;;;;;8.02;2.15;;;;;;;16.52;62.54;100717.75;4501948;31;20072;-62
2022/06/03 00:54:37;;;;;;;4.18;2.00;;;;;;;16.48;61.79;100726.75;4501588;31;20420;-62
2022/06/03 00:57:19;;;;;;;4.72;1.83;;;;;;;16.40;61.28;100728.78;4501512;31;20157;-61
2022/06/03 00:59:57;;;;;;;2.65;1.83;;;;;;;16.38;63.11;100730.62;4501735;31;20107;-62
2022/06/03 01:02:50;;;;;;;3.95;1.87;;;;;;;16.35;63.05;100730.72;4501812;31;20075;-62
2022/06/03 01:05:36;;;;;;;5.20;2.58;;;;;;;16.29;62.68;100731.78;4501610;31;20506;-62
2022/06/03 01:08:24;;;;;;;3.40;1.90;;;;;;;16.29;64.45;100737.09;4501576;31;20100;-62
2022/06/03 01:10:57;;;;;;;5.20;2.08;;;;;;;16.13;64.37;100741.13;4501486;31;20178;-62
2022/06/03 01:13:44;;;;;;;2.30;2.10;;;;;;;16.05;65.14;100735.16;4501601;31;20088;-62
2022/06/03 01:16:46;;;;;;;5.72;2.12;;;;;;;15.99;65.22;100733.53;4501371;31;20514;-62
2022/06/03 01:19:45;;;;;;;2.20;1.80;;;;;;;15.95;65.84;100738.06;4501662;31;20107;-62
2022/06/03 01:22:30;;;;;;;4.90;2.10;;;;;;;15.98;64.92;100726.50;4501486;31;20117;-62
2022/06/03 01:25:25;;;;;;;3.60;2.00;;;;;;;16.03;64.97;100735.19;4501583;31;20409;-61
2022/06/03 01:28:20;;;;;;;2.12;1.67;;;;;;;15.99;65.50;100739.72;4501481;31;20117;-61
2022/06/03 01:31:09;;;;;;;2.35;1.80;;;;;;;15.97;65.73;100743.31;4501351;31;20160;-62
2022/06/03 01:34:02;;;;;;;3.40;1.83;;;;;;;15.94;67.75;100746.09;4501234;31;20592;-62
2022/06/03 01:37:07;;;;;;;3.90;2.25;;;;;;;15.95;66.12;100753.16;4501340;31;20106;-62
2022/06/03 01:39:46;;;;;;;2.12;1.62;;;;;;;15.95;66.71;100750.50;4501182;31;20117;-62
2022/06/03 01:42:36;;;;;;;4.25;2.10;;;;;;;15.95;66.35;100747.84;4501226;31;20156;-62
2022/06/03 01:45:03;;;;;;;6.72;3.15;;;;;;;15.92;67.22;100748.78;4501287;31;20079;-62
2022/06/03 01:47:49;;;;;;;2.30;2.10;;;;;;;15.94;66.85;100756.72;4501266;31;20079;-62
2022/06/03 01:50:25;;;;;;;2.17;2.00;;;;;;;15.91;67.04;100756.81;4500998;31;20493;-62
2022/06/03 01:53:40;;;;;;;1.92;1.83;;;;;;;16.05;66.24;100770.59;4501149;31;20537;-62
2022/06/03 01:56:36;;;;;;;2.55;2.05;;;;;;;16.07;66.52;100767.88;4452172;31;20504;-62
2022/06/03 01:59:15;;;;;;;1.70;1.60;;;;;;;16.14;67.34;100770.28;4492778;31;20083;-62
2022/06/03 02:02:21;;;;;;;6.40;1.95;;;;;;;16.20;65.99;100769.25;4501139;31;20080;-62
2022/06/03 02:05:31;;;;;;;1.98;1.80;;;;;;;16.28;65.26;100767.25;4500978;31;20115;-62
2022/06/03 02:08:10;;;;;;;1.87;1.77;;;;;;;16.43;64.39;100766.81;4479331;31;20092;-62
2022/06/03 02:11:11;;;;;;;1.87;1.75;;;;;;;16.52;63.53;100764.78;4500787;31;20491;-62
2022/06/03 02:13:57;;;;;;;4.60;1.87;;;;;;;16.61;63.22;100768.03;4485867;31;20099;-62
2022/06/03 02:17:04;;;;;;;3.25;2.10;;;;;;;16.63;62.74;100758.19;4500762;31;20115;-62
2022/06/03 02:19:41;;;;;;;2.62;2.05;;;;;;;16.67;63.64;100764.31;4500750;31;20088;-62
2022/06/03 02:22:23;;;;;;;1.95;1.80;;;;;;;16.74;62.71;100760.56;4500605;31;20582;-62
2022/06/03 02:25:28;;;;;;;2.20;2.10;;;;;;;16.76;62.32;100757.88;4500526;31;20088;-62
2022/06/03 02:28:32;;;;;;;3.72;1.90;;;;;;;16.64;65.17;100748.44;4500921;31;20095;-62
2022/06/03 02:31:31;;;;;;;3.00;2.17;;;;;;;16.46;66.23;100765.81;4502622;31;20160;-62
2022/06/03 02:34:04;;;;;;;3.33;1.92;;;;;;;16.36;67.76;100764.34;4502731;31;20079;-62
2022/06/03 02:36:38;;;;;;;5.53;2.30;;;;;;;16.24;67.48;100760.28;4502934;31;20164;-62
2022/06/03 02:39:39;;;;;;;3.80;2.25;;;;;;;16.15;68.11;100752.59;4502876;31;20096;-62
2022/06/03 02:42:25;;;;;;;2.67;1.98;;;;;;;16.11;69.54;100753.56;4502741;31;20087;-62
2022/06/03 02:45:12;;;;;;;3.58;2.22;;;;;;;16.01;69.20;100751.19;4502705;31;20176;-62
2022/06/03 02:48:15;;;;;;;2.20;2.10;;;;;;;15.93;69.65;100742.53;4502689;31;20099;-62
2022/06/03 02:51:09;;;;;;;1.90;1.80;;;;;;;15.97;68.60;100741.56;4502419;31;20095;-62
2022/06/03 02:54:00;;;;;;;6.22;2.17;;;;;;;16.10;68.22;100747.38;4502608;31;20209;-62
2022/06/03 02:56:59;;;;;;;2.67;2.47;;;;;;;16.14;70.50;100753.47;4502481;31;20221;-62
2022/06/03 02:59:34;;;;;;;7.95;2.30;;;;;;;16.14;68.29;100754.34;4502453;31;20088;-62
2022/06/03 03:02:10;;;;;;;2.47;2.28;;;;;;;16.19;68.36;100755.09;4502601;31;20100;-62
2022/06/03 03:04:55;;;;;;;3.62;2.60;;;;;;;16.20;67.78;100753.31;4502560;31;20103;-62
2022/06/03 03:07:39;;;;;;;2.70;2.50;;;;;;;16.22;68.92;100749.69;4502539;31;20139;-62
2022/06/03 03:10:20;;;;;;;5.72;2.85;;;;;;;16.12;72.52;100752.66;4502337;31;20169;-62
2022/06/03 03:13:24;;;;;;;3.28;2.90;;;;;;;15.96;72.72;100754.88;4502484;31;20084;-62
2022/06/03 03:16:17;;;;;;;3.25;2.33;;;;;;;15.85;73.62;100765.81;4502393;31;20088;-62
2022/06/03 03:18:44;;;;;;;5.82;2.53;;;;;;;15.82;73.75;100765.03;4502372;31;20427;-62
2022/06/03 03:21:18;;;;;;;3.17;2.70;;;;;;;15.75;73.58;100767.84;4502343;31;20111;-61
2022/06/03 03:23:45;;;;;;;2.95;2.67;;;;;;;15.74;74.01;100773.22;4502190;31;20670;-61
2022/06/03 03:26:15;;;;;;;2.75;2.50;;;;;;;15.81;73.77;100771.25;4502246;31;20114;-62
2022/06/03 03:29:10;;;;;;;2.85;2.62;;;;;;;15.89;74.51;100783.41;4502278;31;20063;-61
2022/06/03 03:31:55;;;;;;;7.57;2.97;;;;;;;15.94;75.15;100786.81;4502377;31;20083;-62
2022/06/03 03:34:30;;;;;;;4.22;2.95;;;;;;;16.06;74.78;100788.25;4502812;31;20092;-62
2022/06/03 03:37:48;;;;;;;5.95;2.75;;;;;;;16.15;72.51;100792.47;4503025;31;20112;-62
2022/06/03 03:40:46;;;;;;;2.87;2.67;;;;;;;16.15;74.94;100796.00;4435635;32;20103;-62
2022/06/03 03:43:16;;;;;;;4.12;2.40;;;;;;;16.14;73.67;100791.56;4502942;31;20885;-62
2022/06/03 03:46:10;;;;;;;3.42;2.60;;;;;;;16.22;74.93;100794.03;4502830;31;20119;-61
2022/06/03 03:48:56;;;;;;;2.50;2.30;;;;;;;16.32;73.67;100798.16;4503134;31;20730;-62
2022/06/03 03:51:39;;;;;;;4.78;2.83;;;;;;;16.40;75.25;100795.28;4502966;31;20096;-62
2022/06/03 03:54:45;;;;;;;2.78;2.58;;;;;;;16.41;75.39;100794.38;4502483;31;20429;-62
2022/06/03 03:57:49;;;;;;;7.25;3.08;;;;;;;16.51;76.08;100792.31;4478339;31;20119;-62
2022/06/03 04:00:38;;;;;;;4.37;2.50;;;;;;;16.58;75.81;100792.06;4503045;31;20117;-62
2022/06/03 04:04:05;;;;;;;3.67;2.25;;;;;;;16.72;74.20;100789.87;4502900;31;20470;-62
2022/06/03 04:07:08;;;;;;;5.07;2.33;;;;;;;16.88;73.13;100795.59;4420568;32;20093;-62
2022/06/03 04:09:53;;;;;;;2.60;2.40;;;;;;;17.04;70.95;100801.31;4420803;32;20094;-62
2022/06/03 04:12:40;;;;;;;10.07;3.10;;;;;;;17.26;70.76;100805.97;4501537;31;20242;-62
2022/06/03 04:15:33;;;;;;;3.62;3.25;;;;;;;17.41;69.36;100806.31;4501890;31;20492;-62
2022/06/03 04:18:34;;;;;;;4.53;2.75;;;;;;;17.59;67.96;100807.47;4502037;31;20100;-62
2022/06/03 04:21:23;;;;;;;3.00;2.80;;;;;;;17.71;67.26;100806.19;4502238;31;20472;-62
2022/06/03 04:23:56;;;;;;;2.97;2.70;;;;;;;17.84;66.34;100804.84;4501787;31;20108;-62
2022/06/03 04:27:02;;;;;;;3.37;2.70;;;;;;;17.92;68.65;100808.16;4487191;31;20075;-62
2022/06/03 04:29:48;;;;;;;3.30;2.62;;;;;;;17.98;67.00;100808.84;4498340;31;20092;-62
2022/06/03 04:32:34;;;;;;;4.93;2.30;;;;;;;18.06;68.83;100812.12;4500058;31;20099;-62
2022/06/03 04:35:16;;;;;;;4.93;3.00;;;;;;;18.25;66.83;100806.97;4500303;31;20091;-62
2022/06/03 04:38:17;;;;;;;2.70;2.50;;;;;;;18.38;67.71;100813.59;4500700;31;20090;-62
2022/06/03 04:41:15;;;;;;;15.05;3.33;;;;;;;18.49;65.88;100818.53;4501814;31;20148;-62
2022/06/03 04:43:42;;;;;;;8.88;2.97;;;;;;;18.51;66.91;100824.66;4501807;31;20084;-62
2022/06/03 04:47:00;;;;;;;4.53;2.20;;;;;;;18.55;65.17;100821.84;4499202;31;20103;-62
2022/06/03 04:49:55;;;;;;;3.55;2.25;;;;;;;18.62;64.33;100825.12;4498517;31;20152;-62
2022/06/03 04:52:45;;;;;;;2.95;2.50;;;;;;;18.75;65.47;100833.59;4501272;31;20584;-62
2022/06/03 04:55:31;;;;;;;3.80;2.22;;;;;;;18.98;65.46;100822.88;4501700;31;20435;-62
2022/06/03 04:58:19;;;;;;;4.10;2.40;;;;;;;19.15;64.08;100826.66;4501639;31;20793;-62
2022/06/03 05:01:09;;;;;;;3.90;2.45;;;;;;;19.30;63.54;100826.94;4501234;31;20187;-62
2022/06/03 05:03:36;;;;;;;6.50;2.97;;;;;;;19.45;62.93;100829.91;4501512;31;20772;-62
2022/06/03 05:06:47;;;;;;;5.40;2.37;;;;;;;19.59;62.20;100828.38;4501918;31;20153;-62
2022/06/03 05:09:38;;;;;;;2.72;2.03;;;;;;;19.74;61.60;100832.22;4475491;31;20505;-62
2022/06/03 05:12:11;;;;;;;6.45;2.15;;;;;;;19.89;60.44;100836.03;4500846;31;20208;-63
2022/06/03 05:15:00;;;;;;;3.20;2.47;;;;;;;20.05;59.30;100830.91;4501335;31;20151;-63
2022/06/03 05:17:36;;;;;;;4.22;2.47;;;;;;;20.09;59.77;100835.19;4499713;31;20171;-63
2022/06/03 05:20:06;;;;;;;3.12;2.42;;;;;;;20.15;60.22;100839.41;4493891;31;20092;-63
2022/06/03 05:22:48;;;;;;;6.30;2.30;;;;;;;20.32;58.58;100852.00;4500961;31;20080;-63
2022/06/03 05:26:00;;;;;;;11.38;2.58;;;;;;;20.37;58.00;100839.31;4497667;31;20100;-63
2022/06/03 05:28:49;;;;;;;4.60;2.60;;;;;;;20.56;57.91;100845.59;4489368;31;20435;-63
2022/06/03 05:31:41;;;;;;;6.43;2.50;;;;;;;20.72;57.98;100851.13;4500833;31;20099;-62
2022/06/03 05:34:40;;;;;;;10.18;3.12;;;;;;;20.82;57.12;100851.56;4501526;31;20072;-62
2022/06/03 05:37:19;;;;;;;14.50;3.03;;;;;;;20.93;55.64;100854.59;4500911;31;20091;-62
2022/06/03 05:39:59;;;;;;;5.32;2.30;;;;;;;21.00;55.44;100851.53;4501521;31;20092;-62
2022/06/03 05:42:32;;;;;;;5.47;2.50;;;;;;;21.09;54.84;100854.72;4501219;31;20095;-62
2022/06/03 05:45:50;;;;;;;3.40;2.12;;;;;;;21.27;54.14;100856.50;4499974;31;20469;-62
2022/06/03 05:48:29;;;;;;;15.18;2.95;;;;;;;21.20;53.89;100855.06;4500963;31;20510;-63
2022/06/03 05:51:00;;;;;;;11.77;2.60;;;;;;;21.36;52.88;100858.78;4500556;31;20083;-63
2022/06/03 05:53:38;;;;;;;9.93;2.53;;;;;;;21.39;53.07;100858.62;4500684;31;20461;-62
2022/06/03 05:56:31;;;;;;;7.07;2.50;;;;;;;21.54;52.17;100857.00;4500710;31;20098;-63
2022/06/03 05:59:21;;;;;;;9.07;3.90;;;;;;;21.64;52.59;100865.44;4500373;31;20080;-63
2022/06/03 06:02:10;;;;;;;3.78;2.40;;;;;;;21.76;50.88;100862.12;4499771;31;20083;-63
2022/06/03 06:05:07;;;;;;;3.40;2.20;;;;;;;21.84;50.02;100859.97;4500794;31;20115;-63
2022/06/03 06:07:39;;;;;;;5.60;2.85;;;;;;;22.03;50.87;100864.37;4500733;31;20101;-63
2022/06/03 06:10:29;;;;;;;5.07;2.45;;;;;;;22.07;50.07;100855.22;4501728;31;20163;-62
2022/06/03 06:13:20;;;;;;;2.75;2.40;;;;;;;22.13;49.38;100862.94;4502287;31;20157;-63
2022/06/03 06:16:16;;;;;;;6.65;3.10;;;;;;;22.27;48.83;100854.19;4501199;31;20111;-62
2022/06/03 06:19:00;;;;;;;4.63;2.27;;;;;;;22.18;49.44;100855.53;4499388;31;20449;-63
2022/06/03 06:21:50;;;;;;;11.57;2.90;;;;;;;22.29;49.12;100853.16;4502342;31;20087;-63
2022/06/03 06:24:20;;;;;;;4.82;2.33;;;;;;;22.38;48.60;100847.31;4502627;31;20151;-63
2022/06/03 06:27:07;;;;;;;3.80;2.28;;;;;;;22.50;48.02;100845.75;4502940;31;20140;-63
2022/06/03 06:29:40;;;;;;;8.07;2.47;;;;;;;22.52;47.95;100851.06;4502364;31;20081;-62
2022/06/03 06:32:35;;;;;;;5.82;3.05;;;;;;;22.69;47.71;100853.69;4502355;31;20084;-62
2022/06/03 06:35:08;;;;;;;2.40;2.28;;;;;;;22.64;47.63;100855.75;4502517;31;20156;-62
2022/06/03 06:37:54;;;;;;;4.47;2.25;;;;;;;22.72;47.60;100858.00;4502525;31;20099;-63
2022/06/03 06:40:50;;;;;;;3.60;2.23;;;;;;;22.79;46.92;100856.72;4503564;31;20223;-62
2022/06/03 06:43:26;;;;;;;3.00;2.20;;;;;;;22.83;47.65;100850.25;4502557;31;20465;-63
2022/06/03 06:46:38;;;;;;;38.05;3.30;;;;;;;22.86;47.72;100856.34;4502308;31;20096;-62
2022/06/03 06:49:18;;;;;;;6.85;2.72;;;;;;;23.04;47.21;100854.47;4482498;31;20143;-63
2022/06/03 06:51:45;;;;;;;9.90;3.08;;;;;;;23.14;47.17;100847.63;4502262;31;20144;-63
2022/06/03 06:54:31;;;;;;;7.43;3.03;;;;;;;23.25;46.19;100847.00;4503139;31;20186;-62
2022/06/03 06:57:04;;;;;;;2.85;2.10;;;;;;;23.24;46.63;100847.94;4503007;31;20119;-62
2022/06/03 06:59:31;;;;;;;2.72;2.42;;;;;;;23.35;46.05;100850.87;4502410;31;20179;-62
2022/06/03 07:02:37;;;;;;;3.53;2.30;;;;;;;23.41;46.29;100848.78;4502830;31;20079;-62
2022/06/03 07:05:13;;;;;;;4.62;2.37;;;;;;;23.46;45.48;100850.25;4502012;31;20131;-62
2022/06/03 07:07:43;;;;;;;;;;;;;;;23.70;45.41;100847.13;4502750;31;20149;-63
2022/06/03 07:10:15;;;;;;;4.53;2.58;;;;;;;23.74;45.51;100849.53;4503217;31;19987;-62
2022/06/03 07:12:52;;;;;;;5.40;2.70;;;;;;;23.90;44.65;100848.62;4502041;31;20488;-63
2022/06/03 07:15:38;;;;;;;3.97;2.28;;;;;;;24.00;44.60;100849.81;4502079;31;20154;-63
2022/06/03 07:21:54;;;;;;;12.18;3.20;;;;;;;24.36;43.94;100853.91;4501135;31;20092;-62
2022/06/03 07:24:52;;;;;;;11.38;2.90;;;;;;;24.51;43.41;100847.56;4502596;31;20083;-63
2022/06/03 07:27:39;;;;;;;6.03;3.00;;;;;;;24.63;42.71;100832.47;4469572;31;20241;-62
2022/06/03 07:30:30;;;;;;;2.83;2.45;;;;;;;24.70;43.09;100829.31;4502544;31;20083;-63
2022/06/03 07:33:30;;;;;;;2.37;2.17;;;;;;;24.86;43.08;100829.16;4502618;31;20084;-63
2022/06/03 07:36:26;;;;;;;9.23;2.47;;;;;;;24.97;41.91;100820.37;4458324;31;20104;-63
2022/06/03 07:39:11;;;;;;;2.53;2.40;;;;;;;25.00;41.65;100825.59;4502480;31;20431;-62
2022/06/03 07:41:48;;;;;;;4.40;2.05;;;;;;;25.15;41.29;100816.50;4502067;31;20118;-63
2022/06/03 07:44:28;;;;;;;44.40;5.03;;;;;;;25.23;41.09;100830.37;4502170;31;20163;-63
2022/06/03 07:47:03;;;;;;;13.90;2.22;;;;;;;25.35;41.03;100822.44;4501354;31;20155;-62
2022/06/03 07:49:35;;;;;;;5.50;2.53;;;;;;;25.54;40.66;100828.31;4485094;31;20115;-63
2022/06/03 07:52:11;;;;;;;10.32;2.30;;;;;;;25.58;38.91;100828.97;4485250;31;20498;-63
2022/06/03 07:54:51;;;;;;;10.50;2.05;;;;;;;25.72;39.94;100824.38;4483625;31;20603;-63
2022/06/03 07:57:21;;;;;;;5.20;2.25;;;;;;;25.75;39.85;100826.00;4484268;31;20558;-63
2022/06/03 07:59:49;;;;;;;2.72;1.98;;;;;;;25.88;39.20;100826.91;4484239;31;20394;-63
2022/06/03 08:02:19;;;;;;;7.50;2.00;;;;;;;25.90;38.76;100822.28;4484564;31;20766;-63
2022/06/03 08:05:04;;;;;;;3.05;2.17;;;;;;;26.01;38.46;100824.25;4485102;31;20581;-63
2022/06/03 08:13:15;;;;;;;3.83;1.90;;;;;;;26.19;38.65;100817.56;4484870;31;20493;-63
2022/06/03 08:16:12;;;;;;;6.80;2.17;;;;;;;26.34;38.29;100806.63;4505893;31;20096;-63
2022/06/03 08:18:42;;;;;;;8.50;1.87;;;;;;;26.50;38.22;100814.53;4500717;31;20746;-63
2022/06/03 08:21:35;;;;;;;3.40;1.95;;;;;;;26.61;37.97;100820.03;4501351;31;20079;-63
2022/06/03 08:24:06;;;;;;;6.28;1.67;;;;;;;26.65;37.33;100817.00;4491925;31;20130;-63
2022/06/03 08:26:34;;;;;;;3.45;1.50;;;;;;;26.86;37.49;100817.28;4501653;31;20150;-62
2022/06/03 08:29:12;;;;;;;1.65;1.55;;;;;;;26.91;37.27;100819.63;4501211;31;20083;-63
2022/06/03 08:31:41;;;;;;;3.17;2.00;;;;;;;26.99;36.97;100819.06;4499742;31;20099;-63
2022/06/03 08:34:17;;;;;;;13.40;2.22;;;;;;;26.98;37.06;100818.22;4500002;31;20738;-63
2022/06/03 08:36:45;;;;;;;5.35;1.73;;;;;;;27.05;37.27;100808.66;4500544;31;20152;-63
2022/06/03 08:39:18;;;;;;;12.20;2.37;;;;;;;27.20;36.69;100811.25;4501709;31;20152;-63
2022/06/03 08:42:08;;;;;;;1.77;1.65;;;;;;;27.35;36.74;100820.91;4501997;31;20123;-63
2022/06/03 08:44:55;;;;;;;4.05;1.90;;;;;;;27.47;36.07;100811.88;4501364;31;20134;-64
2022/06/03 08:47:42;;;;;;;5.10;2.17;;;;;;;27.52;36.30;100811.50;4500885;31;20115;-64
2022/06/03 08:50:29;;;;;;;2.45;2.20;;;;;;;27.63;36.15;100815.16;4501157;31;20092;-64
2022/06/03 08:53:11;;;;;;;9.07;2.17;;;;;;;27.68;35.63;100824.75;4499790;31;20138;-64
2022/06/03 08:55:45;;;;;;;4.97;2.00;;;;;;;27.62;36.60;100816.09;4499040;31;20088;-63
2022/06/03 08:58:25;;;;;;;5.45;2.37;;;;;;;27.71;36.10;100813.69;4498168;31;20171;-63
2022/06/03 09:01:20;;;;;;;12.80;2.12;;;;;;;27.73;36.41;100809.00;4499411;31;20878;-63
2022/06/03 09:03:55;;;;;;;9.43;2.12;;;;;;;27.95;36.13;100813.66;4500433;31;20122;-63
2022/06/03 09:06:44;;;;;;;5.75;2.00;;;;;;;28.18;35.97;100809.16;4500564;31;20087;-63
2022/06/03 09:09:24;;;;;;;3.70;2.30;;;;;;;28.39;35.79;100798.47;4501010;31;20163;-63
2022/06/03 09:12:04;;;;;;;7.65;2.10;;;;;;;28.55;34.83;100802.56;4501895;31;20087;-63
2022/06/03 09:14:32;;;;;;;5.70;2.10;;;;;;;28.63;34.49;100807.34;4502034;31;20155;-63
2022/06/03 09:17:39;;;;;;;6.05;1.80;;;;;;;28.63;35.02;100801.06;4501997;31;20099;-63
2022/06/03 09:20:19;;;;;;;;;;;;;;;28.87;34.97;100804.50;4502309;31;20807;-63
2022/06/03 09:22:49;;;;;;;11.93;2.20;;;;;;;28.95;35.08;100796.56;4501995;31;20031;-63
2022/06/03 09:25:18;;;;;;;7.65;2.58;;;;;;;28.84;34.81;100802.03;4501406;31;20079;-63
2022/06/03 09:27:48;;;;;;;7.68;2.10;;;;;;;29.05;34.08;100794.88;4501000;31;20091;-63
2022/06/03 09:30:26;;;;;;;5.62;2.00;;;;;;;29.21;34.08;100796.28;4500291;31;20091;-63
2022/06/03 09:32:56;;;;;;;2.12;2.00;;;;;;;29.28;33.21;100797.50;4500726;31;20504;-63
2022/06/03 09:35:27;;;;;;;2.15;1.80;;;;;;;29.06;33.76;100807.44;4500891;31;20417;-63
2022/06/03 09:37:59;;;;;;;4.35;2.00;;;;;;;28.53;34.13;100800.94;4500821;31;20548;-63
2022/06/03 09:40:31;;;;;;;3.70;1.70;;;;;;;28.58;34.69;100809.56;4500644;31;20159;-63
2022/06/03 09:43:06;;;;;;;8.70;1.87;;;;;;;28.99;33.71;100808.06;4500807;31;20405;-63
2022/06/03 09:45:41;;;;;;;6.78;2.37;;;;;;;29.53;32.71;100820.72;4500573;31;20075;-63
2022/06/03 09:48:16;;;;;;;3.58;2.17;;;;;;;29.81;31.69;100813.81;4499918;31;20147;-63
2022/06/03 09:50:48;;;;;;;10.75;2.12;;;;;;;29.88;31.69;100825.03;4500954;31;20091;-63
2022/06/03 09:53:22;;;;;;;6.37;1.70;;;;;;;29.86;32.08;100814.31;4501091;31;20182;-63
2022/06/03 09:55:53;;;;;;;4.25;2.30;;;;;;;30.22;32.14;100814.84;4501502;31;20091;-63
2022/06/03 09:58:30;;;;;;;7.28;2.50;;;;;;;30.36;31.44;100813.63;4501338;31;20107;-63
2022/06/03 10:00:58;;;;;;;6.12;2.08;;;;;;;30.51;31.70;100814.97;4501050;31;20148;-63
2022/06/03 10:03:27;;;;;;;6.82;2.00;;;;;;;30.64;31.46;100821.06;4501192;31;20860;-63
2022/06/03 10:05:58;;;;;;;4.00;2.33;;;;;;;30.80;31.10;100820.56;4500458;31;20164;-64
2022/06/03 10:08:28;;;;;;;20.73;3.03;;;;;;;30.85;31.33;100818.28;4500314;31;20510;-63
2022/06/03 10:13:42;;;;;;;2.85;1.95;;;;;;;31.08;30.82;100816.19;4500769;31;20520;-63
2022/06/03 10:16:12;;;;;;;6.70;2.70;;;;;;;31.27;30.31;100815.34;4500712;31;20662;-64
2022/06/03 10:18:46;;;;;;;3.00;1.90;;;;;;;31.22;29.51;100809.47;4500254;31;20172;-63
2022/06/03 10:21:14;;;;;;;5.03;1.87;;;;;;;30.41;30.83;100812.22;4500400;31;20091;-63
2022/06/03 10:23:47;;;;;;;7.43;2.05;;;;;;;30.46;30.11;100812.69;4500495;31;20140;-63
2022/06/03 10:26:29;;;;;;;5.75;2.03;;;;;;;30.97;30.27;100813.59;4500543;31;20439;-63
2022/06/03 10:29:04;;;;;;;4.65;1.92;;;;;;;31.16;29.33;100810.03;4485561;31;20100;-63
2022/06/03 10:31:33;;;;;;;5.18;1.83;;;;;;;31.09;30.08;100809.72;4499958;31;20104;-64
2022/06/03 10:34:14;;;;;;;7.50;1.98;;;;;;;30.44;30.16;100802.94;4500196;31;20092;-63
2022/06/03 10:36:45;;;;;;;7.05;1.90;;;;;;;30.69;30.94;100793.44;4500635;31;20079;-63
2022/06/03 10:39:18;;;;;;;3.05;1.87;;;;;;;31.59;30.26;100790.63;4500916;31;20096;-63
2022/06/03 10:41:51;;;;;;;9.70;2.35;;;;;;;31.66;28.08;100793.59;4500545;31;20096;-63
2022/06/03 10:44:22;;;;;;;14.52;2.50;;;;;;;31.52;28.79;100791.31;4500074;31;20084;-63
2022/06/03 10:47:02;;;;;;;5.82;2.28;;;;;;;31.80;29.31;100786.84;4499910;31;20162;-63
2022/06/03 10:49:32;;;;;;;4.62;2.00;;;;;;;32.36;28.00;100784.12;4501268;31;20578;-63
2022/06/03 11:03:27;;;;;;;6.60;1.70;;;;;;;33.53;26.15;100767.09;4501946;31;20163;-63
2022/06/03 11:05:55;;;;;;;6.97;2.10;;;;;;;33.68;27.00;100764.66;4499980;31;20092;-63
2022/06/03 11:08:22;;;;;;;1.98;1.75;;;;;;;33.69;26.76;100761.75;4501001;31;20191;-63
2022/06/03 11:10:55;;;;;;;3.05;1.40;;;;;;;33.98;26.48;100755.97;4501606;31;20449;-62
2022/06/03 11:13:39;;;;;;;1.40;1.35;;;;;;;33.81;26.05;100762.34;4501522;31;20511;-63
2022/06/03 11:16:19;;;;;;;2.65;2.28;;;;;;;33.92;26.53;100762.06;4498315;31;20622;-63
2022/06/03 11:18:47;;;;;;;7.50;1.65;;;;;;;34.49;25.46;100758.84;4499457;31;20555;-63
2022/06/03 11:21:26;;;;;;;5.65;1.58;;;;;;;33.46;25.86;100750.44;4499106;31;20510;-62
2022/06/03 11:23:57;;;;;;;1.80;1.70;;;;;;;33.75;26.72;100754.81;4498829;31;20447;-62
2022/06/03 11:26:31;;;;;;;1.62;1.52;;;;;;;33.84;26.21;100742.03;4500137;31;20080;-63
2022/06/03 11:29:08;;;;;;;3.15;1.58;;;;;;;34.62;25.05;100740.09;4499817;31;20144;-63
2022/06/03 11:31:41;;;;;;;2.60;1.50;;;;;;;34.77;24.14;100733.97;4501357;31;20144;-63
2022/06/03 11:34:51;;;;;;;13.05;2.30;;;;;;;36.02;23.80;100736.50;4502494;31;20126;-63
2022/06/03 11:37:49;;;;;;;2.85;1.40;;;;;;;36.19;22.46;100731.81;4485476;31;20146;-62
2022/06/03 11:40:23;;;;;;;3.60;1.48;;;;;;;37.59;22.97;100735.47;4498623;31;20144;-63
2022/06/03 11:42:54;;;;;;;23.25;2.15;;;;;;;38.63;20.73;100728.16;4485078;31;20092;-62
2022/06/03 11:45:36;;;;;;;2.25;1.58;;;;;;;38.82;19.82;100718.44;4485910;31;20762;-63
2022/06/03 11:48:25;;;;;;;2.22;1.45;;;;;;;38.87;20.46;100715.09;4490543;31;20533;-63
2022/06/03 11:50:53;;;;;;;6.65;1.67;;;;;;;39.46;20.15;100712.09;4501035;31;20098;-63
2022/06/03 11:53:25;;;;;;;6.95;2.15;;;;;;;39.86;19.95;100701.37;4501005;31;20757;-63
2022/06/03 11:55:54;;;;;;;2.20;1.85;;;;;;;40.91;19.37;100691.03;4502271;31;20143;-63
2022/06/03 11:58:47;;;;;;;5.20;2.00;;;;;;;41.23;18.61;100695.78;4501608;31;20083;-63
2022/06/03 12:01:22;;;;;;;1.60;1.45;;;;;;;41.29;17.71;100700.47;4500761;31;20383;-63
2022/06/03 12:04:00;;;;;;;6.00;1.40;;;;;;;39.18;19.50;100690.81;4501882;31;20149;-62
2022/06/03 12:06:42;;;;;;;2.05;1.50;;;;;;;40.50;18.71;100683.66;4501775;31;20088;-63
2022/06/03 12:09:40;;;;;;;9.13;1.62;;;;;;;39.61;18.39;100679.72;4501507;31;20071;-63
2022/06/03 12:15:30;;;;;;;4.35;1.45;;;;;;;38.74;19.33;100677.22;4501897;31;20477;-63
2022/06/03 12:18:32;;;;;;;7.32;1.33;;;;;;;39.21;19.39;100678.53;4501529;31;20137;-63
2022/06/03 12:21:03;;;;;;;1.02;0.98;;;;;;;38.58;20.12;100670.03;4496400;31;20095;-62
2022/06/03 12:23:37;;;;;;;13.40;2.45;;;;;;;39.20;18.87;100663.91;4501120;31;20087;-63
2022/06/03 12:26:21;;;;;;;3.08;2.78;;;;;;;39.91;19.27;100660.25;4501682;31;20107;-63
2022/06/03 12:28:50;;;;;;;7.00;2.10;;;;;;;42.00;17.36;100660.19;4500968;31;20104;-63
2022/06/03 12:31:18;;;;;;;5.60;1.30;;;;;;;41.81;17.33;100648.09;4500571;31;20277;-63
2022/06/03 12:34:13;;;;;;;1.70;1.40;;;;;;;41.94;15.81;100650.84;4486968;31;20131;-63
2022/06/03 12:36:53;;;;;;;10.85;1.87;;;;;;;41.23;18.07;100654.28;4502735;31;20739;-64
2022/06/03 12:39:54;;;;;;;4.22;1.50;;;;;;;41.64;17.25;100646.84;4502093;31;20100;-64
2022/06/03 12:42:27;;;;;;;14.55;2.40;;;;;;;41.94;16.92;100644.44;4502030;31;20516;-64
2022/06/03 12:45:03;;;;;;;5.25;1.20;;;;;;;41.98;15.71;100640.16;4501779;31;20083;-64
2022/06/03 12:47:34;;;;;;;11.57;1.85;;;;;;;41.85;15.63;100645.78;4501552;31;20776;-64
2022/06/03 12:50:04;;;;;;;9.82;1.17;;;;;;;39.98;17.21;100636.28;4502003;31;20153;-65
2022/06/03 12:52:33;;;;;;;1.95;1.40;;;;;;;41.67;17.71;100638.13;4501688;31;20079;-65
2022/06/03 12:55:09;;;;;;;3.47;1.20;;;;;;;41.07;16.86;100627.94;4501434;31;20152;-65
2022/06/03 12:57:51;;;;;;;2.03;1.30;;;;;;;41.80;16.26;100622.31;4501131;31;20494;-64
2022/06/03 13:00:18;;;;;;;7.65;1.37;;;;;;;41.37;16.16;100627.50;4500855;31;20103;-64
2022/06/03 13:03:07;;;;;;;3.10;1.10;;;;;;;38.79;18.28;100622.38;4501178;31;20482;-64
2022/06/03 13:05:45;;;;;;;4.35;1.40;;;;;;;41.75;16.79;100619.38;4501377;31;20178;-64